createdAt,value
2023-01-07T00:01:34.936Z,100849.75
2023-01-07T00:04:04.404Z,100835.25
2023-01-07T00:06:37.934Z,100839.81
2023-01-07T00:09:07.313Z,100841.47
2023-01-07T00:11:39.186Z,100827.19
2023-01-07T00:14:09.106Z,100834.22
2023-01-07T00:16:37.554Z,100828.97
2023-01-07T00:19:06.971Z,100831.22
2023-01-07T00:21:37.981Z,100822.88
2023-01-07T00:24:07.253Z,100819.06
2023-01-07T00:26:37.916Z,100828.16
2023-01-07T00:29:06.230Z,100813.44
2023-01-07T00:31:37.946Z,100807.97
2023-01-07T00:34:05.767Z,100810.44
2023-01-07T00:36:40.588Z,100811.94
2023-01-07T00:39:20.856Z,100807.72
2023-01-07T00:42:21.181Z,100804.41
2023-01-07T00:44:48.169Z,100796.81
2023-01-07T00:47:15.120Z,100792.34
2023-01-07T00:49:42.087Z,100794.47
2023-01-07T00:52:08.989Z,100801.56
2023-01-07T00:54:35.867Z,100784.75
2023-01-07T00:57:02.792Z,100782.66
2023-01-07T00:59:29.906Z,100779.84
2023-01-07T01:01:56.945Z,100776.41
2023-01-07T01:04:23.977Z,100779.63
2023-01-07T01:06:50.884Z,100782.84
2023-01-07T01:09:20.511Z,100777.34
2023-01-07T01:11:47.499Z,100782.44
2023-01-07T01:14:14.396Z,100777.94
2023-01-07T01:16:42.284Z,100772.97
2023-01-07T01:19:09.328Z,100777.84
2023-01-07T01:21:36.252Z,100779.84
2023-01-07T01:24:03.279Z,100772.47
2023-01-07T01:26:30.259Z,100770.63
2023-01-07T01:28:57.563Z,100773.09
2023-01-07T01:31:24.573Z,100774.75
2023-01-07T01:33:56.367Z,100775.78
2023-01-07T01:36:24.380Z,100781.34
2023-01-07T01:38:51.456Z,100774.88
2023-01-07T01:41:18.601Z,100777.34
2023-01-07T01:43:46.565Z,100769.31
2023-01-07T01:46:35.092Z,100767.75
2023-01-07T01:49:27.169Z,100765.56
2023-01-07T01:52:03.470Z,100767.25
2023-01-07T01:54:31.340Z,100765.06
2023-01-07T01:57:02.025Z,100771.06
2023-01-07T01:59:35.088Z,100767.53
2023-01-07T02:02:02.996Z,100760.06
2023-01-07T02:04:31.708Z,100758.13
2023-01-07T02:07:14.275Z,100761.00
2023-01-07T02:09:41.531Z,100759.91
2023-01-07T02:12:34.018Z,100758.41
2023-01-07T02:15:19.254Z,100753.06
2023-01-07T02:18:10.675Z,100744.59
2023-01-07T02:20:48.052Z,100738.25
2023-01-07T02:23:43.644Z,100746.13
2023-01-07T02:26:39.344Z,100737.75
2023-01-07T02:30:09.423Z,100734.56
2023-01-07T02:33:02.286Z,100734.41
2023-01-07T02:36:06.492Z,100732.47
2023-01-07T02:39:02.583Z,100725.63
2023-01-07T02:42:17.977Z,100722.88
2023-01-07T02:44:56.228Z,100717.19
2023-01-07T02:47:29.482Z,100719.00
2023-01-07T02:49:56.395Z,100712.63
2023-01-07T02:52:29.732Z,100700.72
2023-01-07T02:55:11.030Z,100705.44
2023-01-07T02:58:27.818Z,100700.00
2023-01-07T03:01:44.205Z,100698.78
2023-01-07T03:04:35.770Z,100700.56
2023-01-07T03:07:37.781Z,100686.63
2023-01-07T03:10:27.208Z,100690.63
2023-01-07T03:13:06.848Z,100685.81
2023-01-07T03:15:46.197Z,100686.06
2023-01-07T03:18:26.909Z,100684.28
2023-01-07T03:21:02.010Z,100679.66
2023-01-07T03:23:31.126Z,100683.19
2023-01-07T03:26:03.965Z,100684.16
2023-01-07T03:28:40.599Z,100682.06
2023-01-07T03:31:13.004Z,100683.72
2023-01-07T03:33:44.250Z,100679.88
2023-01-07T03:36:13.949Z,100671.94
2023-01-07T03:38:43.481Z,100674.41
2023-01-07T03:41:30.393Z,100667.28
2023-01-07T03:43:57.302Z,100666.47
2023-01-07T03:46:24.703Z,100667.03
2023-01-07T03:48:51.682Z,100657.22
2023-01-07T03:51:18.560Z,100667.97
2023-01-07T03:53:45.458Z,100661.00
2023-01-07T03:56:12.355Z,100658.69
2023-01-07T03:58:39.338Z,100665.50
2023-01-07T04:01:06.374Z,100661.28
2023-01-07T04:03:33.291Z,100653.63
2023-01-07T04:06:00.282Z,100652.50
2023-01-07T04:08:29.690Z,100649.09
2023-01-07T04:10:56.686Z,100643.88
2023-01-07T04:13:23.853Z,100641.56
2023-01-07T04:15:50.757Z,100631.31
2023-01-07T04:18:17.626Z,100632.28
2023-01-07T04:20:48.553Z,100630.34
2023-01-07T04:23:16.420Z,100629.41
2023-01-07T04:25:47.328Z,100625.16
2023-01-07T04:28:14.437Z,100622.00
2023-01-07T04:30:41.518Z,100624.06
2023-01-07T04:33:08.500Z,100629.53
2023-01-07T04:35:35.704Z,100625.69
2023-01-07T04:38:02.652Z,100616.06
2023-01-07T04:40:29.656Z,100619.38
2023-01-07T04:42:56.647Z,100610.47
2023-01-07T04:45:23.893Z,100604.19
2023-01-07T04:47:50.805Z,100600.66
2023-01-07T04:50:17.878Z,100601.59
2023-01-07T04:52:44.810Z,100601.72
2023-01-07T04:55:11.793Z,100597.81
2023-01-07T04:57:38.812Z,100593.13
2023-01-07T05:00:08.821Z,100592.00
2023-01-07T05:02:35.785Z,100597.47
2023-01-07T05:05:03.093Z,100596.19
2023-01-07T05:07:30.149Z,100594.97
2023-01-07T05:09:57.071Z,100596.34
2023-01-07T05:12:23.951Z,100595.94
2023-01-07T05:14:50.827Z,100594.97
2023-01-07T05:17:17.744Z,100589.22
2023-01-07T05:19:44.649Z,100588.97
2023-01-07T05:22:11.549Z,100577.38
2023-01-07T05:24:38.528Z,100578.47
2023-01-07T05:27:05.511Z,100570.69
2023-01-07T05:29:32.491Z,100572.00
2023-01-07T05:31:59.502Z,100570.38
2023-01-07T05:34:26.457Z,100581.03
2023-01-07T05:36:53.359Z,100569.69
2023-01-07T05:39:20.276Z,100568.94
2023-01-07T05:41:47.161Z,100562.38
2023-01-07T05:44:14.028Z,100566.06
2023-01-07T05:46:41.158Z,100551.44
2023-01-07T05:49:08.303Z,100554.31
2023-01-07T05:51:35.828Z,100552.41
2023-01-07T05:54:02.784Z,100548.91
2023-01-07T05:56:29.721Z,100554.59
2023-01-07T05:58:56.732Z,100540.31
2023-01-07T06:01:23.732Z,100543.38
2023-01-07T06:03:50.709Z,100539.44
2023-01-07T06:06:17.889Z,100547.47
2023-01-07T06:08:44.834Z,100543.09
2023-01-07T06:11:13.597Z,100541.88
2023-01-07T06:13:41.561Z,100532.47
2023-01-07T06:16:10.378Z,100532.72
2023-01-07T06:18:37.372Z,100531.34
2023-01-07T06:21:04.419Z,100530.41
2023-01-07T06:23:31.504Z,100522.59
2023-01-07T06:25:58.545Z,100521.13
2023-01-07T06:28:25.544Z,100525.75
2023-01-07T06:30:52.566Z,100520.44
2023-01-07T06:33:19.741Z,100515.38
2023-01-07T06:35:46.911Z,100522.28
2023-01-07T06:38:13.904Z,100523.09
2023-01-07T06:40:40.809Z,100518.53
2023-01-07T06:43:07.845Z,100522.75
2023-01-07T06:45:34.843Z,100511.56
2023-01-07T06:48:02.288Z,100507.31
2023-01-07T06:50:29.151Z,100503.78
2023-01-07T06:52:56.922Z,100502.69
2023-01-07T06:55:23.942Z,100503.38
2023-01-07T06:57:51.028Z,100505.47
2023-01-07T07:00:18.121Z,100498.78
2023-01-07T07:02:45.217Z,100492.63
2023-01-07T07:05:12.433Z,100500.28
2023-01-07T07:07:39.411Z,100492.00
2023-01-07T07:10:08.371Z,100476.13
2023-01-07T07:12:37.790Z,100478.84
2023-01-07T07:15:07.848Z,100482.00
2023-01-07T07:17:35.216Z,100478.97
2023-01-07T07:20:02.385Z,100471.59
2023-01-07T07:22:29.377Z,100468.88
2023-01-07T07:24:56.244Z,100461.50
2023-01-07T07:27:23.118Z,100468.63
2023-01-07T07:29:50.027Z,100459.00
2023-01-07T07:32:17.023Z,100464.06
2023-01-07T07:34:44.057Z,100456.88
2023-01-07T07:37:11.078Z,100458.63
2023-01-07T07:39:38.127Z,100455.91
2023-01-07T07:42:05.814Z,100462.59
2023-01-07T07:44:32.777Z,100456.88
2023-01-07T07:46:59.760Z,100460.41
2023-01-07T07:49:26.820Z,100459.19
2023-01-07T07:51:53.882Z,100446.91
2023-01-07T07:54:23.102Z,100449.66
2023-01-07T07:56:50.901Z,100432.81
2023-01-07T07:59:17.789Z,100437.47
2023-01-07T08:01:44.885Z,100435.00
2023-01-07T08:04:11.925Z,100435.97
2023-01-07T08:06:38.854Z,100428.63
2023-01-07T08:09:05.811Z,100438.03
2023-01-07T08:11:33.793Z,100421.50
2023-01-07T08:14:01.599Z,100426.16
2023-01-07T08:16:29.108Z,100413.69
2023-01-07T08:18:56.832Z,100407.97
2023-01-07T08:21:26.878Z,100413.44
2023-01-07T08:23:54.255Z,100418.22
2023-01-07T08:26:21.969Z,100406.63
2023-01-07T08:28:49.737Z,100409.34
2023-01-07T08:31:17.444Z,100405.78
2023-01-07T08:33:46.871Z,100393.63
2023-01-07T08:36:22.669Z,100388.53
2023-01-07T08:38:55.456Z,100389.63
2023-01-07T08:41:26.175Z,100386.75
2023-01-07T08:43:54.646Z,100393.06
2023-01-07T08:46:22.573Z,100388.69
2023-01-07T08:48:50.382Z,100385.34
2023-01-07T08:51:18.353Z,100386.84
2023-01-07T08:53:49.192Z,100387.13
2023-01-07T08:56:16.851Z,100386.03
2023-01-07T08:58:47.890Z,100369.50
2023-01-07T09:01:15.714Z,100373.50
2023-01-07T09:03:43.712Z,100374.84
2023-01-07T09:06:13.755Z,100369.09
2023-01-07T09:08:41.625Z,100368.69
2023-01-07T09:11:09.680Z,100372.19
2023-01-07T09:13:39.789Z,100367.44
2023-01-07T09:16:10.081Z,100359.19
2023-01-07T09:18:37.787Z,100365.81
2023-01-07T09:21:08.663Z,100357.69
2023-01-07T09:23:40.486Z,100352.00
2023-01-07T09:26:08.762Z,100346.06
2023-01-07T09:28:41.541Z,100352.81
2023-01-07T09:31:08.994Z,100341.53
2023-01-07T09:33:43.527Z,100337.97
2023-01-07T09:36:11.390Z,100336.59
2023-01-07T09:38:39.157Z,100342.28
2023-01-07T09:41:42.351Z,100333.88
2023-01-07T09:44:33.794Z,100339.06
2023-01-07T09:47:03.885Z,100337.47
2023-01-07T09:49:33.621Z,100337.09
2023-01-07T09:52:23.690Z,100337.75
2023-01-07T09:55:02.194Z,100323.09
2023-01-07T09:57:36.005Z,100319.78
2023-01-07T10:00:08.485Z,100317.09
2023-01-07T10:03:01.449Z,100307.56
2023-01-07T10:06:31.708Z,100312.22
2023-01-07T10:09:59.472Z,100309.66
2023-01-07T10:13:14.825Z,100305.13
2023-01-07T10:16:02.380Z,100294.47
2023-01-07T10:18:55.906Z,100282.41
2023-01-07T10:21:39.351Z,100279.56
2023-01-07T10:24:21.689Z,100279.44
2023-01-07T10:26:54.516Z,100278.13
2023-01-07T10:29:39.958Z,100264.88
2023-01-07T10:32:20.912Z,100254.56
2023-01-07T10:34:56.540Z,100255.16
2023-01-07T10:37:44.658Z,100248.38
2023-01-07T10:40:31.214Z,100241.06
2023-01-07T10:43:26.821Z,100237.13
2023-01-07T10:46:31.596Z,100225.53
2023-01-07T10:49:17.387Z,100227.59
2023-01-07T10:52:13.412Z,100214.22
2023-01-07T10:55:17.732Z,100207.66
2023-01-07T10:57:48.471Z,100211.66
2023-01-07T11:00:19.118Z,100214.09
2023-01-07T11:02:55.551Z,100201.81
2023-01-07T11:05:45.960Z,100197.53
2023-01-07T11:08:41.283Z,100196.03
2023-01-07T11:11:19.262Z,100195.28
2023-01-07T11:14:00.446Z,100182.84
2023-01-07T11:16:34.245Z,100180.88
2023-01-07T11:19:11.084Z,100173.75
2023-01-07T11:21:48.876Z,100173.78
2023-01-07T11:24:37.500Z,100170.56
2023-01-07T11:27:17.650Z,100170.06
2023-01-07T11:29:57.502Z,100161.81
2023-01-07T11:32:33.848Z,100152.75
2023-01-07T11:35:16.883Z,100150.84
2023-01-07T11:38:07.105Z,100143.75
2023-01-07T11:40:34.717Z,100132.81
2023-01-07T11:43:23.796Z,100132.81
2023-01-07T11:46:19.732Z,100130.38
2023-01-07T11:49:01.523Z,100120.78
2023-01-07T11:51:44.837Z,100121.78
2023-01-07T11:54:28.157Z,100117.53
2023-01-07T11:57:25.012Z,100112.97
2023-01-07T12:00:15.619Z,100097.13
2023-01-07T12:02:43.379Z,100094.84
2023-01-07T12:05:19.950Z,100092.56
2023-01-07T12:07:50.198Z,100071.03
2023-01-07T12:10:34.569Z,100071.03
2023-01-07T12:13:18.363Z,100074.94
2023-01-07T12:16:08.462Z,100063.69
2023-01-07T12:19:16.650Z,100049.81
2023-01-07T12:22:06.505Z,100040.38
2023-01-07T12:25:14.688Z,100050.13
2023-01-07T12:28:16.962Z,100040.03
2023-01-07T12:31:10.173Z,100021.78
2023-01-07T12:34:04.051Z,100031.22
2023-01-07T12:37:39.353Z,100031.41
2023-01-07T12:40:19.547Z,100017.88
2023-01-07T12:43:00.691Z,100008.41
2023-01-07T12:46:08.415Z,100003.81
2023-01-07T12:48:41.892Z,100009.03
2023-01-07T12:51:23.380Z,100001.91
2023-01-07T12:54:01.939Z,99995.84
2023-01-07T12:56:41.943Z,99983.44
2023-01-07T12:59:47.055Z,99987.22
2023-01-07T13:03:10.779Z,99986.72
2023-01-07T13:06:12.195Z,99970.81
2023-01-07T13:09:43.066Z,99970.47
2023-01-07T13:12:45.932Z,99969.00
2023-01-07T13:15:27.461Z,99961.03
2023-01-07T13:18:21.930Z,99947.16
2023-01-07T13:21:10.784Z,99952.38
2023-01-07T13:24:19.026Z,99955.16
2023-01-07T13:26:55.757Z,99950.56
2023-01-07T13:30:02.864Z,99954.16
2023-01-07T13:32:56.321Z,99957.09
2023-01-07T13:36:09.972Z,99947.81
2023-01-07T13:39:10.420Z,99944.50
2023-01-07T13:42:08.266Z,99947.09
2023-01-07T13:45:33.291Z,99938.72
2023-01-07T13:48:09.225Z,99941.25
2023-01-07T13:50:44.790Z,99930.44
2023-01-07T13:53:18.170Z,99939.44
2023-01-07T13:55:49.033Z,99945.31
2023-01-07T13:58:40.238Z,99940.00
2023-01-07T14:01:27.339Z,99931.72
2023-01-07T14:04:24.212Z,99936.97
2023-01-07T14:06:52.892Z,99934.84
2023-01-07T14:09:26.280Z,99933.50
2023-01-07T14:12:25.785Z,99933.13
2023-01-07T14:15:22.719Z,99937.53
2023-01-07T14:18:02.372Z,99920.34
2023-01-07T14:20:52.761Z,99922.00
2023-01-07T14:23:51.986Z,99930.66
2023-01-07T14:26:49.640Z,99924.34
2023-01-07T14:29:49.692Z,99940.00
2023-01-07T14:32:45.191Z,99930.66
2023-01-07T14:35:13.285Z,99937.03
2023-01-07T14:37:47.329Z,99934.41
2023-01-07T14:40:30.993Z,99936.53
2023-01-07T14:43:01.828Z,99933.66
2023-01-07T14:45:45.066Z,99930.88
2023-01-07T14:48:29.405Z,99933.94
2023-01-07T14:51:28.530Z,99925.50
2023-01-07T14:54:35.705Z,99929.78
2023-01-07T14:57:42.073Z,99919.34
2023-01-07T15:00:53.900Z,99911.69
2023-01-07T15:03:39.659Z,99914.81
2023-01-07T15:06:51.950Z,99914.63
2023-01-07T15:10:10.213Z,99920.03
2023-01-07T15:13:05.833Z,99921.97
2023-01-07T15:15:57.339Z,99921.47
2023-01-07T15:18:32.290Z,99925.09
2023-01-07T15:21:56.051Z,99929.50
2023-01-07T15:24:59.062Z,99937.66
2023-01-07T15:27:56.900Z,99938.13
2023-01-07T15:30:33.683Z,99930.16
2023-01-07T15:33:44.787Z,99941.22
2023-01-07T15:36:16.011Z,99927.03
2023-01-07T15:38:52.978Z,99938.94
2023-01-07T15:41:41.035Z,99933.53
2023-01-07T15:44:33.879Z,99936.56
2023-01-07T15:47:03.188Z,99940.16
2023-01-07T15:49:34.022Z,99940.44
2023-01-07T15:52:25.878Z,99936.88
2023-01-07T15:54:53.537Z,99926.56
2023-01-07T15:57:34.587Z,99927.00
2023-01-07T16:00:05.117Z,99928.56
2023-01-07T16:02:38.516Z,99931.75
2023-01-07T16:05:11.797Z,99926.53
2023-01-07T16:07:52.174Z,99931.75
2023-01-07T16:10:35.715Z,99922.66
2023-01-07T16:13:06.785Z,99929.66
2023-01-07T16:15:37.802Z,99928.69
2023-01-07T16:18:19.980Z,99933.81
2023-01-07T16:21:14.370Z,99930.66
2023-01-07T16:23:42.438Z,99936.78
2023-01-07T16:26:38.246Z,99935.50
2023-01-07T16:29:23.124Z,99929.25
2023-01-07T16:31:50.950Z,99936.78
2023-01-07T16:34:24.932Z,99933.81
2023-01-07T16:37:03.912Z,99932.19
2023-01-07T16:39:41.523Z,99930.72
2023-01-07T16:42:20.386Z,99922.53
2023-01-07T16:44:56.646Z,99926.53
2023-01-07T16:47:30.732Z,99931.03
2023-01-07T16:50:58.541Z,99929.19
2023-01-07T16:53:33.839Z,99921.69
2023-01-07T16:56:11.441Z,99909.69
2023-01-07T16:58:53.231Z,99901.94
2023-01-07T17:01:34.029Z,99909.13
2023-01-07T17:04:40.652Z,99916.91
2023-01-07T17:07:26.478Z,99914.06
2023-01-07T17:10:00.655Z,99910.31
2023-01-07T17:12:41.026Z,99898.81
2023-01-07T17:15:41.991Z,99896.59
2023-01-07T17:18:13.507Z,99896.44
2023-01-07T17:20:59.541Z,99898.00
2023-01-07T17:23:28.788Z,99890.75
2023-01-07T17:26:40.426Z,99888.56
2023-01-07T17:29:13.551Z,99893.22
2023-01-07T17:31:44.460Z,99883.66
2023-01-07T17:34:16.268Z,99886.28
2023-01-07T17:36:51.928Z,99890.75
2023-01-07T17:39:24.806Z,99896.19
2023-01-07T17:42:10.098Z,99897.56
2023-01-07T17:44:37.147Z,99893.63
2023-01-07T17:47:04.110Z,99879.56
2023-01-07T17:49:31.251Z,99882.06
2023-01-07T17:51:58.237Z,99876.06
2023-01-07T17:54:25.868Z,99876.59
2023-01-07T17:56:52.909Z,99867.75
2023-01-07T17:59:23.403Z,99871.66
2023-01-07T18:01:55.125Z,99876.69
2023-01-07T18:04:22.363Z,99871.13
2023-01-07T18:06:49.366Z,99876.88
2023-01-07T18:09:16.336Z,99877.94
2023-01-07T18:12:04.491Z,99892.38
2023-01-07T18:14:32.600Z,99898.38
2023-01-07T18:16:59.622Z,99901.38
2023-01-07T18:19:26.572Z,99902.75
2023-01-07T18:21:53.478Z,99901.53
2023-01-07T18:24:21.922Z,99900.31
2023-01-07T18:26:49.458Z,99896.09
2023-01-07T18:29:16.555Z,99895.94
2023-01-07T18:31:45.322Z,99899.22
2023-01-07T18:34:14.950Z,99883.94
2023-01-07T18:36:42.125Z,99882.59
2023-01-07T18:39:19.129Z,99874.41
2023-01-07T18:41:49.387Z,99872.22
2023-01-07T18:44:18.546Z,99881.78
2023-01-07T18:46:45.572Z,99881.22
2023-01-07T18:49:12.905Z,99881.09
2023-01-07T18:51:39.934Z,99874.00
2023-01-07T18:54:07.210Z,99873.28
2023-01-07T18:56:34.104Z,99869.91
2023-01-07T18:59:00.998Z,99865.28
2023-01-07T19:01:28.096Z,99859.16
2023-01-07T19:03:55.112Z,99867.19
2023-01-07T19:06:22.216Z,99858.34
2023-01-07T19:08:49.129Z,99856.97
2023-01-07T19:11:16.038Z,99865.66
2023-01-07T19:13:42.992Z,99855.47
2023-01-07T19:16:12.896Z,99864.72
2023-01-07T19:18:40.435Z,99867.72
2023-01-07T19:21:10.961Z,99861.66
2023-01-07T19:23:38.087Z,99859.13
2023-01-07T19:26:09.160Z,99858.28
2023-01-07T19:28:36.155Z,99861.28
2023-01-07T19:31:10.748Z,99862.66
2023-01-07T19:33:39.327Z,99852.44
2023-01-07T19:36:10.805Z,99860.88
2023-01-07T19:38:44.343Z,99856.78
2023-01-07T19:41:18.129Z,99849.44
2023-01-07T19:43:46.393Z,99860.22
2023-01-07T19:46:15.193Z,99853.22
2023-01-07T19:48:42.797Z,99852.28
2023-01-07T19:51:10.919Z,99845.06
2023-01-07T19:53:38.509Z,99824.44
2023-01-07T19:56:11.717Z,99827.69
2023-01-07T19:58:39.809Z,99823.47
2023-01-07T20:01:11.283Z,99816.88
2023-01-07T20:03:38.904Z,99817.47
2023-01-07T20:06:09.868Z,99819.38
2023-01-07T20:08:37.857Z,99813.78
2023-01-07T20:11:06.113Z,99820.75
2023-01-07T20:13:35.783Z,99819.38
2023-01-07T20:16:24.293Z,99813.78
2023-01-07T20:18:54.373Z,99822.22
2023-01-07T20:21:25.427Z,99819.91
2023-01-07T20:23:53.104Z,99823.84
2023-01-07T20:26:27.931Z,99818.28
2023-01-07T20:28:55.214Z,99820.31
2023-01-07T20:31:24.325Z,99815.28
2023-01-07T20:33:51.793Z,99827.69
2023-01-07T20:36:21.655Z,99828.50
2023-01-07T20:38:48.932Z,99824.00
2023-01-07T20:41:20.123Z,99821.00
2023-01-07T20:44:00.031Z,99819.91
2023-01-07T20:46:29.275Z,99816.09
2023-01-07T20:48:57.441Z,99807.53
2023-01-07T20:51:25.121Z,99816.78
2023-01-07T20:53:52.392Z,99798.50
2023-01-07T20:56:23.438Z,99796.75
2023-01-07T20:58:51.211Z,99798.38
2023-01-07T21:01:21.317Z,99791.03
2023-01-07T21:03:49.221Z,99798.91
2023-01-07T21:06:19.558Z,99805.19
2023-01-07T21:08:48.355Z,99804.81
2023-01-07T21:11:23.559Z,99806.81
2023-01-07T21:13:51.827Z,99809.56
2023-01-07T21:16:19.270Z,99815.22
2023-01-07T21:18:47.097Z,99818.53
2023-01-07T21:21:21.088Z,99811.94
2023-01-07T21:23:49.606Z,99817.94
2023-01-07T21:26:17.245Z,99819.34
2023-01-07T21:28:44.811Z,99810.84
2023-01-07T21:31:16.145Z,99804.03
2023-01-07T21:33:44.689Z,99808.69
2023-01-07T21:36:18.283Z,99802.47
2023-01-07T21:38:46.837Z,99804.91
2023-01-07T21:41:16.212Z,99811.47
2023-01-07T21:43:44.049Z,99814.19
2023-01-07T21:46:11.507Z,99825.38
2023-01-07T21:48:46.566Z,99828.34
2023-01-07T21:51:22.340Z,99822.09
2023-01-07T21:53:51.914Z,99827.41
2023-01-07T21:56:19.645Z,99830.94
2023-01-07T21:58:47.484Z,99831.63
2023-01-07T22:01:16.677Z,99816.47
2023-01-07T22:03:47.324Z,99823.13
2023-01-07T22:06:24.617Z,99812.81
2023-01-07T22:08:59.574Z,99813.50
2023-01-07T22:11:27.227Z,99819.06
2023-01-07T22:13:57.205Z,99821.25
2023-01-07T22:16:27.419Z,99808.69
2023-01-07T22:18:54.560Z,99802.41
2023-01-07T22:21:21.745Z,99813.59
2023-01-07T22:23:48.912Z,99809.50
2023-01-07T22:26:18.146Z,99805.38
2023-01-07T22:29:00.833Z,99803.09
2023-01-07T22:31:33.269Z,99804.03
2023-01-07T22:34:00.161Z,99796.94
2023-01-07T22:36:54.515Z,99793.09
2023-01-07T22:39:31.623Z,99802.50
2023-01-07T22:42:03.951Z,99803.69
2023-01-07T22:44:48.331Z,99801.53
2023-01-07T22:47:17.705Z,99799.09
2023-01-07T22:49:45.355Z,99795.41
2023-01-07T22:52:12.658Z,99800.50
2023-01-07T22:54:39.871Z,99794.47
2023-01-07T22:57:10.513Z,99796.34
2023-01-07T22:59:38.149Z,99799.31
2023-01-07T23:02:05.905Z,99796.81
2023-01-07T23:04:32.924Z,99785.31
2023-01-07T23:06:59.857Z,99791.03
2023-01-07T23:09:26.863Z,99782.28
2023-01-07T23:11:59.322Z,99781.19
2023-01-07T23:14:27.917Z,99771.91
2023-01-07T23:16:56.113Z,99789.41
2023-01-07T23:19:23.331Z,99781.19
2023-01-07T23:21:53.283Z,99774.31
2023-01-07T23:24:21.850Z,99772.16
2023-01-07T23:26:52.463Z,99768.75
2023-01-07T23:29:20.089Z,99764.66
2023-01-07T23:31:47.300Z,99758.81
2023-01-07T23:34:15.658Z,99757.03
2023-01-07T23:36:42.572Z,99753.34
2023-01-07T23:39:09.499Z,99747.13
2023-01-07T23:41:36.442Z,99736.13
2023-01-07T23:44:03.426Z,99732.59
2023-01-07T23:46:31.216Z,99730.00
2023-01-07T23:48:58.087Z,99724.38
2023-01-07T23:51:25.053Z,99725.72
2023-01-07T23:53:51.974Z,99722.66
2023-01-07T23:56:20.901Z,99721.44
2023-01-07T23:58:49.396Z,99701.66
